Time;durP1;ratioP1;P1;durP2;ratioP2;P2;SDS_P1;SDS_P2;PMS_P1;PMS_P2;Temp;Humidity;BMP_temperature;BMP_pressure;BME280_temperature;BME280_humidity;BME280_pressure;Samples;Min_cycle;Max_cycle;Signal;HPM_P1;HPM_P2
2021/07/11 00:02:02;;;;;;;8.70;7.90;;;;;;;;;;5108667;28;20022;-64
2021/07/11 00:04:28;;;;;;;10.13;9.23;;;;;;;;;;5120977;27;20079;-64
2021/07/11 00:06:53;;;;;;;10.18;9.18;;;;;;;;;;5144600;27;20023;-64
2021/07/11 00:09:18;;;;;;;9.60;8.60;;;;;;;;;;5114167;27;20122;-63
2021/07/11 00:11:43;;;;;;;10.40;9.35;;;;;;;;;;5135027;27;20026;-64
2021/07/11 00:14:08;;;;;;;9.02;8.23;;;;;;;;;;5140379;27;20018;-64
2021/07/11 00:16:34;;;;;;;9.43;8.52;;;;;;;;;;5146244;27;20014;-64
2021/07/11 00:18:59;;;;;;;10.13;8.90;;;;;;;;;;5134327;27;20019;-63
2021/07/11 00:21:25;;;;;;;10.05;9.15;;;;;;;;;;5155330;27;20053;-64
2021/07/11 00:23:50;;;;;;;10.07;9.07;;;;;;;;;;5136797;27;20108;-64
2021/07/11 00:26:16;;;;;;;9.88;9.02;;;;;;;;;;5139359;27;20084;-64
2021/07/11 00:28:41;;;;;;;10.50;9.45;;;;;;;;;;5133151;27;20469;-63
2021/07/11 00:31:06;;;;;;;10.30;9.40;;;;;;;;;;5155556;27;20479;-64
2021/07/11 00:33:32;;;;;;;9.80;8.90;;;;;;;;;;5154507;27;20061;-64
2021/07/11 00:35:57;;;;;;;10.95;10.05;;;;;;;;;;5155461;27;20026;-64
2021/07/11 00:38:22;;;;;;;10.15;9.20;;;;;;;;;;5133731;27;20015;-63
2021/07/11 00:40:47;;;;;;;10.07;9.18;;;;;;;;;;5141588;27;20047;-64
2021/07/11 00:43:13;;;;;;;10.10;8.98;;;;;;;;;;5118230;27;20027;-63
2021/07/11 00:45:38;;;;;;;10.27;9.27;;;;;;;;;;5136710;27;20053;-63
2021/07/11 00:48:03;;;;;;;10.52;9.50;;;;;;;;;;5133732;27;20370;-64
2021/07/11 00:50:30;;;;;;;10.25;9.27;;;;;;;;;;5154993;27;20427;-63
2021/07/11 00:52:55;;;;;;;10.73;9.75;;;;;;;;;;5143243;27;20025;-64
2021/07/11 00:55:22;;;;;;;10.50;9.57;;;;;;;;;;5153684;27;20447;-63
2021/07/11 00:57:47;;;;;;;11.73;10.63;;;;;;;;;;5152012;27;20500;-64
2021/07/11 01:00:12;;;;;;;10.73;9.73;;;;;;;;;;5154848;27;20018;-64
2021/07/11 01:02:44;;;;;;;10.38;9.48;;;;;;;;;;5151279;27;20468;-63
2021/07/11 01:05:10;;;;;;;11.30;10.40;;;;;;;;;;5131871;27;20047;-64
2021/07/11 01:07:47;;;;;;;11.23;10.23;;;;;;;;;;5114422;27;20019;-64
2021/07/11 01:10:16;;;;;;;10.73;9.52;;;;;;;;;;5128860;27;20016;-64
2021/07/11 01:12:44;;;;;;;10.68;9.63;;;;;;;;;;5125073;27;20296;-64
2021/07/11 01:15:09;;;;;;;9.77;8.77;;;;;;;;;;5133854;27;20019;-63
2021/07/11 01:17:35;;;;;;;9.77;8.98;;;;;;;;;;5132055;27;20379;-64
2021/07/11 01:20:10;;;;;;;9.07;8.27;;;;;;;;;;5132866;27;20012;-64
2021/07/11 01:22:39;;;;;;;9.00;8.10;;;;;;;;;;5125938;27;20040;-64
2021/07/11 01:25:08;;;;;;;8.75;7.95;;;;;;;;;;5111797;28;20034;-64
2021/07/11 01:27:34;;;;;;;9.05;8.27;;;;;;;;;;5124704;27;20025;-63
2021/07/11 01:30:00;;;;;;;8.90;8.10;;;;;;;;;;5132352;27;20024;-64
2021/07/11 01:32:27;;;;;;;8.88;7.97;;;;;;;;;;5133296;27;20047;-64
2021/07/11 01:34:52;;;;;;;8.70;8.00;;;;;;;;;;5132416;27;20465;-63
2021/07/11 01:37:18;;;;;;;8.68;7.90;;;;;;;;;;5133761;27;20118;-64
2021/07/11 01:39:44;;;;;;;7.50;6.93;;;;;;;;;;5130048;27;20046;-64
2021/07/11 01:42:10;;;;;;;8.63;7.82;;;;;;;;;;5129913;27;20466;-64
2021/07/11 01:44:36;;;;;;;8.13;7.40;;;;;;;;;;5112904;28;20023;-64
2021/07/11 01:47:02;;;;;;;8.02;7.32;;;;;;;;;;5112989;28;20020;-63
2021/07/11 01:49:27;;;;;;;8.32;7.63;;;;;;;;;;5119718;27;20469;-64
2021/07/11 01:51:53;;;;;;;9.70;8.88;;;;;;;;;;5133460;27;20031;-64
2021/07/11 01:54:18;;;;;;;10.13;9.05;;;;;;;;;;5133379;27;20045;-64
2021/07/11 01:56:44;;;;;;;8.80;7.90;;;;;;;;;;5133086;27;20011;-63
2021/07/11 01:59:10;;;;;;;9.20;8.40;;;;;;;;;;5127731;27;20526;-63
2021/07/11 02:01:35;;;;;;;9.13;8.32;;;;;;;;;;5127182;27;20083;-64
2021/07/11 02:04:00;;;;;;;8.50;7.60;;;;;;;;;;5112725;28;20469;-63
2021/07/11 02:06:25;;;;;;;8.35;7.68;;;;;;;;;;5149427;27;20053;-63
2021/07/11 02:08:51;;;;;;;8.68;7.75;;;;;;;;;;5131661;27;20026;-63
2021/07/11 02:11:16;;;;;;;7.70;7.10;;;;;;;;;;5134989;27;20488;-63
2021/07/11 02:13:43;;;;;;;7.55;6.82;;;;;;;;;;5153844;27;20101;-63
2021/07/11 02:16:13;;;;;;;7.50;6.90;;;;;;;;;;5153145;27;20044;-63
2021/07/11 02:18:40;;;;;;;8.25;7.45;;;;;;;;;;5145006;27;20019;-63
2021/07/11 02:21:06;;;;;;;7.70;6.38;;;;;;;;;;5153715;27;20026;-63
2021/07/11 02:23:32;;;;;;;7.15;6.50;;;;;;;;;;5135087;27;20026;-63
2021/07/11 02:25:57;;;;;;;6.78;6.18;;;;;;;;;;5153569;27;20470;-63
2021/07/11 02:28:23;;;;;;;6.93;6.30;;;;;;;;;;5131434;27;20023;-63
2021/07/11 02:30:54;;;;;;;7.30;6.60;;;;;;;;;;5134614;27;20019;-63
2021/07/11 02:33:27;;;;;;;7.47;6.78;;;;;;;;;;5135202;27;20019;-63
2021/07/11 02:35:53;;;;;;;6.78;6.18;;;;;;;;;;5153747;27;20010;-63
2021/07/11 02:38:19;;;;;;;6.88;6.28;;;;;;;;;;5142402;27;20485;-63
2021/07/11 02:40:44;;;;;;;7.47;6.85;;;;;;;;;;5132297;27;20016;-63
2021/07/11 02:43:11;;;;;;;7.00;6.50;;;;;;;;;;5132889;28;20023;-63
2021/07/11 02:45:37;;;;;;;7.53;6.82;;;;;;;;;;5135653;27;20436;-63
2021/07/11 02:48:04;;;;;;;7.43;6.78;;;;;;;;;;5117472;27;20023;-63
2021/07/11 02:50:30;;;;;;;7.25;6.65;;;;;;;;;;5136350;27;20034;-63
2021/07/11 02:52:56;;;;;;;7.25;6.55;;;;;;;;;;5147362;27;20042;-63
2021/07/11 02:55:23;;;;;;;6.70;6.10;;;;;;;;;;5135083;27;20015;-63
2021/07/11 02:57:54;;;;;;;7.22;6.53;;;;;;;;;;5149782;27;20322;-63
2021/07/11 03:00:19;;;;;;;6.75;6.15;;;;;;;;;;5156765;27;20022;-64
2021/07/11 03:02:45;;;;;;;6.63;5.95;;;;;;;;;;5139817;27;20031;-63
2021/07/11 03:05:11;;;;;;;6.95;6.30;;;;;;;;;;5148943;27;20038;-63
2021/07/11 03:07:37;;;;;;;6.22;5.72;;;;;;;;;;5148251;27;20014;-63
2021/07/11 03:10:03;;;;;;;6.22;5.63;;;;;;;;;;5140667;27;20019;-63
2021/07/11 03:12:29;;;;;;;6.82;6.15;;;;;;;;;;5144097;27;20014;-63
2021/07/11 03:14:55;;;;;;;6.18;5.68;;;;;;;;;;5138588;27;20022;-63
2021/07/11 03:17:22;;;;;;;7.20;6.50;;;;;;;;;;5144902;27;20026;-63
2021/07/11 03:19:50;;;;;;;6.65;6.00;;;;;;;;;;5133487;27;20015;-63
2021/07/11 03:22:17;;;;;;;6.78;6.28;;;;;;;;;;5117842;27;20015;-63
2021/07/11 03:24:42;;;;;;;6.20;5.65;;;;;;;;;;5149833;27;20026;-63
2021/07/11 03:27:07;;;;;;;7.57;6.57;;;;;;;;;;5156358;27;20023;-63
2021/07/11 03:29:38;;;;;;;6.55;5.95;;;;;;;;;;5153228;27;20026;-63
2021/07/11 03:32:04;;;;;;;6.47;5.90;;;;;;;;;;5138181;27;20030;-63
2021/07/11 03:34:30;;;;;;;6.63;5.57;;;;;;;;;;5126089;27;20084;-63
2021/07/11 03:36:57;;;;;;;6.90;6.20;;;;;;;;;;5117642;27;20046;-63
2021/07/11 03:39:24;;;;;;;6.57;6.00;;;;;;;;;;5115406;27;20008;-63
2021/07/11 03:41:49;;;;;;;6.55;5.90;;;;;;;;;;5156139;27;20022;-63
2021/07/11 03:44:15;;;;;;;6.38;5.55;;;;;;;;;;5150206;27;20014;-63
2021/07/11 03:46:42;;;;;;;6.20;5.45;;;;;;;;;;5156487;27;20021;-63
2021/07/11 03:49:09;;;;;;;6.00;5.50;;;;;;;;;;5153305;27;20029;-63
2021/07/11 03:51:37;;;;;;;6.47;5.75;;;;;;;;;;5137903;27;20482;-63
2021/07/11 03:54:03;;;;;;;6.25;5.65;;;;;;;;;;5155995;27;20031;-63
2021/07/11 03:56:31;;;;;;;6.30;5.70;;;;;;;;;;5154263;27;20031;-63
2021/07/11 03:58:57;;;;;;;5.85;5.13;;;;;;;;;;5152986;27;20019;-63
2021/07/11 04:01:24;;;;;;;8.52;5.45;;;;;;;;;;5149711;27;20458;-63
2021/07/11 04:03:50;;;;;;;7.55;5.20;;;;;;;;;;5121513;27;20014;-63
2021/07/11 04:06:15;;;;;;;4.90;4.40;;;;;;;;;;5122727;27;20057;-63
2021/07/11 04:08:41;;;;;;;5.60;5.10;;;;;;;;;;5130691;27;20003;-63
2021/07/11 04:11:07;;;;;;;5.32;4.85;;;;;;;;;;5134934;27;20044;-63
2021/07/11 04:13:33;;;;;;;5.18;4.78;;;;;;;;;;5149371;27;20054;-63
2021/07/11 04:16:00;;;;;;;5.28;4.88;;;;;;;;;;5137278;27;20025;-63
2021/07/11 04:18:26;;;;;;;5.03;4.60;;;;;;;;;;5152702;27;20054;-63
2021/07/11 04:20:53;;;;;;;4.40;4.00;;;;;;;;;;5155765;27;20046;-63
2021/07/11 04:23:21;;;;;;;5.72;4.78;;;;;;;;;;5155215;27;20030;-63
2021/07/11 04:25:46;;;;;;;4.70;4.15;;;;;;;;;;5137065;27;20066;-63
2021/07/11 04:28:12;;;;;;;4.80;4.40;;;;;;;;;;5151954;27;20019;-63
2021/07/11 04:30:38;;;;;;;4.22;3.90;;;;;;;;;;5139580;27;20067;-63
2021/07/11 04:33:03;;;;;;;4.82;4.43;;;;;;;;;;5151510;27;20528;-63
2021/07/11 04:35:29;;;;;;;5.28;4.88;;;;;;;;;;5154956;27;20023;-63
2021/07/11 04:37:55;;;;;;;4.85;4.07;;;;;;;;;;5152546;27;20039;-63
2021/07/11 04:40:20;;;;;;;4.50;4.10;;;;;;;;;;5136448;27;20101;-63
2021/07/11 04:42:46;;;;;;;4.90;4.10;;;;;;;;;;5154947;27;20044;-63
2021/07/11 04:45:12;;;;;;;4.40;4.00;;;;;;;;;;5120394;27;20072;-63
2021/07/11 04:47:37;;;;;;;5.75;4.10;;;;;;;;;;5135419;27;20509;-63
2021/07/11 04:50:03;;;;;;;4.43;3.83;;;;;;;;;;5154101;27;20014;-64
2021/07/11 04:52:28;;;;;;;4.30;4.00;;;;;;;;;;5154985;27;20019;-63
2021/07/11 04:54:53;;;;;;;3.47;3.28;;;;;;;;;;5122763;27;20024;-63
2021/07/11 04:57:19;;;;;;;3.80;3.40;;;;;;;;;;5142716;27;20027;-64
2021/07/11 04:59:45;;;;;;;3.47;3.22;;;;;;;;;;5133372;27;20043;-64
2021/07/11 05:02:10;;;;;;;4.60;3.38;;;;;;;;;;5141966;27;20015;-64
2021/07/11 05:04:35;;;;;;;5.57;3.60;;;;;;;;;;5124880;27;20037;-64
2021/07/11 05:07:00;;;;;;;3.30;3.00;;;;;;;;;;5154960;27;20102;-63
2021/07/11 05:09:26;;;;;;;3.45;2.92;;;;;;;;;;5122654;27;20385;-64
2021/07/11 05:11:51;;;;;;;4.03;3.63;;;;;;;;;;5133979;27;20023;-64
2021/07/11 05:14:16;;;;;;;3.38;3.17;;;;;;;;;;5134492;27;20042;-64
2021/07/11 05:16:42;;;;;;;3.67;3.35;;;;;;;;;;5115588;27;20027;-64
2021/07/11 05:19:07;;;;;;;3.55;3.20;;;;;;;;;;5150927;27;20021;-64
2021/07/11 05:21:33;;;;;;;3.33;3.03;;;;;;;;;;5153899;27;20025;-64
2021/07/11 05:23:58;;;;;;;3.40;3.17;;;;;;;;;;5135894;27;20524;-64
2021/07/11 05:26:24;;;;;;;3.88;3.35;;;;;;;;;;5154315;27;20038;-64
2021/07/11 05:28:49;;;;;;;4.38;3.50;;;;;;;;;;5151617;27;20026;-64
2021/07/11 05:31:14;;;;;;;3.13;2.92;;;;;;;;;;5152650;27;20023;-64
2021/07/11 05:33:40;;;;;;;3.40;2.88;;;;;;;;;;5154132;27;20022;-64
2021/07/11 05:36:06;;;;;;;3.92;3.38;;;;;;;;;;5154006;27;20106;-64
2021/07/11 05:38:32;;;;;;;3.33;3.03;;;;;;;;;;5151376;27;20011;-64
2021/07/11 05:40:57;;;;;;;4.00;3.08;;;;;;;;;;5150286;27;20015;-64
2021/07/11 05:43:22;;;;;;;4.75;3.30;;;;;;;;;;5141651;27;20097;-64
2021/07/11 05:45:47;;;;;;;3.42;3.13;;;;;;;;;;5154356;27;20102;-63
2021/07/11 05:48:12;;;;;;;3.08;2.88;;;;;;;;;;5150722;27;20473;-63
2021/07/11 05:50:38;;;;;;;4.63;3.67;;;;;;;;;;5139505;27;20019;-63
2021/07/11 05:53:03;;;;;;;3.15;2.85;;;;;;;;;;5133301;27;20029;-63
2021/07/11 05:55:28;;;;;;;2.92;2.72;;;;;;;;;;5132806;27;20269;-63
2021/07/11 05:57:54;;;;;;;4.47;3.72;;;;;;;;;;5112095;27;20234;-63
2021/07/11 06:00:19;;;;;;;3.80;2.70;;;;;;;;;;5133465;27;20027;-63
2021/07/11 06:02:44;;;;;;;2.85;2.60;;;;;;;;;;5126149;27;20015;-64
2021/07/11 06:05:10;;;;;;;4.00;3.00;;;;;;;;;;5109396;27;20070;-64
2021/07/11 06:07:35;;;;;;;3.53;3.22;;;;;;;;;;5107485;28;20019;-63
2021/07/11 06:10:02;;;;;;;3.38;3.10;;;;;;;;;;5105138;28;20146;-63
2021/07/11 06:12:27;;;;;;;3.13;2.90;;;;;;;;;;5090972;28;20042;-64
2021/07/11 06:14:54;;;;;;;3.78;2.50;;;;;;;;;;5092334;28;20020;-64
2021/07/11 06:17:20;;;;;;;3.70;3.38;;;;;;;;;;5098795;28;20042;-63
2021/07/11 06:19:45;;;;;;;3.13;2.92;;;;;;;;;;5108406;28;20507;-63
2021/07/11 06:22:10;;;;;;;3.42;2.95;;;;;;;;;;5112579;28;20020;-63
2021/07/11 06:24:35;;;;;;;2.80;2.58;;;;;;;;;;5112441;28;20023;-63
2021/07/11 06:27:01;;;;;;;2.50;2.33;;;;;;;;;;5112132;28;20386;-63
2021/07/11 06:29:26;;;;;;;3.38;2.75;;;;;;;;;;5105565;28;20272;-63
2021/07/11 06:31:51;;;;;;;2.70;2.47;;;;;;;;;;5092127;28;20031;-64
2021/07/11 06:34:17;;;;;;;2.78;2.58;;;;;;;;;;5102579;28;20020;-63
2021/07/11 06:36:42;;;;;;;3.10;2.63;;;;;;;;;;5111732;28;20073;-63
2021/07/11 06:39:07;;;;;;;2.85;2.60;;;;;;;;;;5108776;28;20019;-63
2021/07/11 06:41:33;;;;;;;3.75;3.05;;;;;;;;;;5111238;28;20012;-64
2021/07/11 06:43:58;;;;;;;2.85;2.65;;;;;;;;;;5112308;28;20016;-64
2021/07/11 06:46:23;;;;;;;2.70;2.50;;;;;;;;;;5110971;28;20019;-65
2021/07/11 06:48:49;;;;;;;2.50;2.30;;;;;;;;;;5109473;28;20023;-65
2021/07/11 06:51:14;;;;;;;2.35;2.25;;;;;;;;;;5111983;28;20523;-65
2021/07/11 06:53:39;;;;;;;2.05;1.95;;;;;;;;;;5110510;28;20020;-65
2021/07/11 06:56:05;;;;;;;2.65;2.42;;;;;;;;;;5111154;28;20429;-64
2021/07/11 06:58:30;;;;;;;3.05;2.15;;;;;;;;;;5107650;28;20466;-64
2021/07/11 07:00:56;;;;;;;1.90;1.80;;;;;;;;;;5109580;28;20091;-65
2021/07/11 07:03:21;;;;;;;1.98;1.80;;;;;;;;;;5091590;28;20055;-64
2021/07/11 07:05:46;;;;;;;2.05;1.85;;;;;;;;;;5135893;27;20064;-65
2021/07/11 07:08:12;;;;;;;2.25;2.05;;;;;;;;;;5129720;28;20384;-64
2021/07/11 07:10:37;;;;;;;1.70;1.60;;;;;;;;;;5151172;27;20030;-64
2021/07/11 07:13:02;;;;;;;2.25;2.10;;;;;;;;;;5152697;27;20071;-63
2021/07/11 07:15:28;;;;;;;1.98;1.80;;;;;;;;;;5152889;27;20019;-64
2021/07/11 07:17:53;;;;;;;2.22;1.90;;;;;;;;;;5130100;27;20030;-64
2021/07/11 07:20:19;;;;;;;2.65;2.08;;;;;;;;;;5152746;27;20067;-64
2021/07/11 07:22:44;;;;;;;2.13;1.98;;;;;;;;;;5131933;28;20035;-64
2021/07/11 07:25:11;;;;;;;2.25;1.92;;;;;;;;;;5132244;28;20019;-64
2021/07/11 07:27:36;;;;;;;1.88;1.58;;;;;;;;;;5111938;28;20019;-64
2021/07/11 07:30:02;;;;;;;2.10;1.90;;;;;;;;;;5142969;27;20030;-64
2021/07/11 07:32:28;;;;;;;3.22;1.83;;;;;;;;;;5153884;27;20027;-64
2021/07/11 07:34:53;;;;;;;1.98;1.50;;;;;;;;;;5156831;27;20019;-64
2021/07/11 07:37:18;;;;;;;1.70;1.60;;;;;;;;;;5155628;27;20030;-64
2021/07/11 07:39:43;;;;;;;1.70;1.60;;;;;;;;;;5152909;27;20760;-62
2021/07/11 07:42:09;;;;;;;2.15;1.55;;;;;;;;;;5156736;27;20025;-64
2021/07/11 07:44:34;;;;;;;1.60;1.50;;;;;;;;;;5137984;27;20064;-62
2021/07/11 07:46:59;;;;;;;1.45;1.35;;;;;;;;;;5148686;27;20071;-62
2021/07/11 07:49:25;;;;;;;1.40;1.30;;;;;;;;;;5132683;27;20098;-64
2021/07/11 07:51:50;;;;;;;1.80;1.70;;;;;;;;;;5153188;27;20027;-63
2021/07/11 07:54:15;;;;;;;1.88;1.35;;;;;;;;;;5143850;27;20114;-63
2021/07/11 07:56:40;;;;;;;1.30;1.20;;;;;;;;;;5154947;27;20022;-63
2021/07/11 07:59:06;;;;;;;1.42;1.20;;;;;;;;;;5150629;27;20457;-63
2021/07/11 08:01:31;;;;;;;1.43;1.37;;;;;;;;;;5145153;27;20019;-63
2021/07/11 08:03:56;;;;;;;1.38;1.20;;;;;;;;;;5137569;27;20253;-65
2021/07/11 08:06:22;;;;;;;1.88;1.13;;;;;;;;;;5149100;27;20435;-64
2021/07/11 08:08:47;;;;;;;1.75;1.02;;;;;;;;;;5133103;27;20015;-63
2021/07/11 08:11:12;;;;;;;1.20;1.20;;;;;;;;;;5140621;27;20019;-62
2021/07/11 08:13:38;;;;;;;1.70;1.60;;;;;;;;;;5135278;27;20045;-63
2021/07/11 08:16:04;;;;;;;1.60;1.50;;;;;;;;;;5150763;27;20500;-62
2021/07/11 08:18:29;;;;;;;1.92;1.00;;;;;;;;;;5152329;27;20030;-64
2021/07/11 08:20:55;;;;;;;1.20;1.10;;;;;;;;;;5155785;27;20376;-63
2021/07/11 08:23:20;;;;;;;1.42;0.95;;;;;;;;;;5136347;27;20030;-63
2021/07/11 08:25:45;;;;;;;1.53;0.90;;;;;;;;;;5137132;27;20023;-63
2021/07/11 08:28:10;;;;;;;1.45;0.93;;;;;;;;;;5152733;27;20252;-63
2021/07/11 08:30:36;;;;;;;1.15;0.95;;;;;;;;;;5150635;27;20431;-62
2021/07/11 08:33:02;;;;;;;1.30;1.20;;;;;;;;;;5134166;27;20091;-61
2021/07/11 08:35:27;;;;;;;1.30;1.20;;;;;;;;;;5134812;27;20023;-61
2021/07/11 08:37:52;;;;;;;1.65;1.17;;;;;;;;;;5113337;27;20019;-61
2021/07/11 08:40:17;;;;;;;1.13;1.03;;;;;;;;;;5121626;27;20515;-62
2021/07/11 08:42:43;;;;;;;2.47;1.00;;;;;;;;;;5148774;27;20256;-62
2021/07/11 08:45:10;;;;;;;1.92;1.30;;;;;;;;;;5155146;27;20021;-62
2021/07/11 08:47:36;;;;;;;1.20;1.00;;;;;;;;;;5134759;27;20023;-62
2021/07/11 08:50:01;;;;;;;1.70;1.10;;;;;;;;;;5153135;27;20011;-61
2021/07/11 08:52:26;;;;;;;1.25;1.00;;;;;;;;;;5145579;27;20026;-61
2021/07/11 08:54:52;;;;;;;1.10;0.95;;;;;;;;;;5152785;27;20029;-61
2021/07/11 08:57:17;;;;;;;1.10;1.00;;;;;;;;;;5154427;27;20550;-61
2021/07/11 08:59:42;;;;;;;1.10;1.10;;;;;;;;;;5151712;27;20015;-61
2021/07/11 09:02:08;;;;;;;1.67;0.90;;;;;;;;;;5154987;27;20248;-61
2021/07/11 09:04:51;;;;;;;1.20;1.10;;;;;;;;;;5142494;27;20036;-61
2021/07/11 09:07:18;;;;;;;1.73;1.23;;;;;;;;;;5113631;28;20035;-61
2021/07/11 09:09:44;;;;;;;1.40;0.85;;;;;;;;;;5098081;28;20016;-61
2021/07/11 09:12:10;;;;;;;1.52;0.80;;;;;;;;;;5112651;28;20024;-62
2021/07/11 09:14:39;;;;;;;1.00;1.00;;;;;;;;;;5107595;28;20023;-62
2021/07/11 09:17:05;;;;;;;1.85;0.95;;;;;;;;;;5112147;28;20367;-62
2021/07/11 09:19:32;;;;;;;2.28;1.75;;;;;;;;;;5110339;28;20107;-62
2021/07/11 09:22:02;;;;;;;0.73;0.73;;;;;;;;;;5113227;28;20016;-62
2021/07/11 09:24:27;;;;;;;1.92;0.55;;;;;;;;;;5096688;28;20016;-62
2021/07/11 09:26:54;;;;;;;2.78;0.70;;;;;;;;;;5092931;28;20024;-62
2021/07/11 09:29:26;;;;;;;1.00;1.00;;;;;;;;;;5088345;28;20047;-63
2021/07/11 09:31:51;;;;;;;1.50;0.65;;;;;;;;;;5091932;28;20016;-63
2021/07/11 09:34:19;;;;;;;0.80;0.80;;;;;;;;;;5108934;28;20031;-63
2021/07/11 09:36:45;;;;;;;0.90;0.50;;;;;;;;;;5112704;28;20360;-64
2021/07/11 09:39:10;;;;;;;2.10;0.70;;;;;;;;;;5109924;28;20087;-62
2021/07/11 09:41:35;;;;;;;0.50;0.50;;;;;;;;;;5111389;28;20293;-63
2021/07/11 09:44:01;;;;;;;0.60;0.60;;;;;;;;;;5111724;28;20273;-63
2021/07/11 09:46:34;;;;;;;1.33;0.50;;;;;;;;;;5112974;28;20094;-63
2021/07/11 09:48:59;;;;;;;1.02;0.60;;;;;;;;;;5109649;28;20016;-61
2021/07/11 09:51:26;;;;;;;0.60;0.50;;;;;;;;;;5110021;28;20031;-62
2021/07/11 09:53:51;;;;;;;0.85;0.43;;;;;;;;;;5112691;28;20111;-61
2021/07/11 09:56:29;;;;;;;0.82;0.50;;;;;;;;;;5112124;28;20486;-62
2021/07/11 09:58:55;;;;;;;0.90;0.50;;;;;;;;;;5108364;28;20019;-62
2021/07/11 10:01:20;;;;;;;0.40;0.40;;;;;;;;;;5106735;28;20020;-61
2021/07/11 10:03:45;;;;;;;1.55;0.50;;;;;;;;;;5092677;28;20012;-62
2021/07/11 10:06:10;;;;;;;0.40;0.40;;;;;;;;;;5127431;27;20176;-62
2021/07/11 10:08:36;;;;;;;0.43;0.40;;;;;;;;;;5132591;27;20019;-61
2021/07/11 10:11:01;;;;;;;1.35;0.47;;;;;;;;;;5152878;27;20030;-62
2021/07/11 10:13:26;;;;;;;0.55;0.45;;;;;;;;;;5153790;27;20021;-63
2021/07/11 10:15:51;;;;;;;0.50;0.33;;;;;;;;;;5153854;27;20462;-63
2021/07/11 10:18:17;;;;;;;0.30;0.30;;;;;;;;;;5150888;27;20272;-63
2021/07/11 10:20:45;;;;;;;1.88;1.73;;;;;;;;;;5153500;27;20007;-63
2021/07/11 10:23:21;;;;;;;0.85;0.60;;;;;;;;;;5153546;27;20026;-63
2021/07/11 10:25:53;;;;;;;0.98;0.60;;;;;;;;;;5114242;28;20456;-63
2021/07/11 10:28:23;;;;;;;0.77;0.43;;;;;;;;;;5130083;28;20068;-62
2021/07/11 10:30:48;;;;;;;0.40;0.40;;;;;;;;;;5132849;28;20578;-63
2021/07/11 10:33:14;;;;;;;0.88;0.38;;;;;;;;;;5121795;27;20109;-63
2021/07/11 10:35:56;;;;;;;1.85;0.70;;;;;;;;;;5153232;27;20470;-63
2021/07/11 10:38:31;;;;;;;1.02;0.45;;;;;;;;;;5131263;27;20419;-63
2021/07/11 10:40:56;;;;;;;;;;;;;;;;;;5134961;27;20047;-64
2021/07/11 10:43:21;;;;;;;;;;;;;;;;;;5134927;27;19942;-64
2021/07/11 10:45:47;;;;;;;0.80;0.30;;;;;;;;;;5153805;27;19946;-64
2021/07/11 10:48:13;;;;;;;1.20;0.40;;;;;;;;;;5145029;27;20104;-64
2021/07/11 10:50:40;;;;;;;0.75;0.52;;;;;;;;;;5132478;28;20377;-64
2021/07/11 10:53:14;;;;;;;0.40;0.40;;;;;;;;;;5117103;27;20084;-64
2021/07/11 10:55:42;;;;;;;0.45;0.30;;;;;;;;;;5152568;27;20055;-64
2021/07/11 10:58:10;;;;;;;1.65;1.05;;;;;;;;;;5148353;27;20019;-64
2021/07/11 11:00:36;;;;;;;1.13;1.13;;;;;;;;;;5120022;28;20011;-64
2021/07/11 11:03:13;;;;;;;1.80;1.70;;;;;;;;;;5131002;28;20015;-65
2021/07/11 11:05:41;;;;;;;1.70;1.60;;;;;;;;;;5148544;27;20054;-65
2021/07/11 11:08:10;;;;;;;1.88;1.55;;;;;;;;;;5131094;27;20030;-64
2021/07/11 11:10:37;;;;;;;2.70;1.67;;;;;;;;;;5149343;27;20022;-65
2021/07/11 11:13:05;;;;;;;1.50;1.40;;;;;;;;;;5156801;27;20033;-64
2021/07/11 11:15:33;;;;;;;1.60;1.50;;;;;;;;;;5138614;27;20022;-64
2021/07/11 11:18:09;;;;;;;2.97;2.42;;;;;;;;;;5135233;27;20030;-64
2021/07/11 11:20:35;;;;;;;2.33;2.13;;;;;;;;;;5138279;27;20377;-64
2021/07/11 11:23:00;;;;;;;2.17;2.07;;;;;;;;;;5138092;27;20027;-62
2021/07/11 11:25:26;;;;;;;2.30;2.20;;;;;;;;;;5135901;27;20721;-62
2021/07/11 11:27:54;;;;;;;2.40;2.20;;;;;;;;;;5133461;27;20324;-62
2021/07/11 11:30:21;;;;;;;2.50;2.30;;;;;;;;;;5140041;27;20019;-62
2021/07/11 11:32:50;;;;;;;2.20;2.10;;;;;;;;;;5156815;27;20025;-63
2021/07/11 11:35:16;;;;;;;2.53;2.10;;;;;;;;;;5156895;27;20026;-63
2021/07/11 11:37:46;;;;;;;2.35;2.20;;;;;;;;;;5153903;27;20565;-62
2021/07/11 11:40:12;;;;;;;3.08;1.92;;;;;;;;;;5156200;27;20110;-62
2021/07/11 11:42:42;;;;;;;2.08;1.92;;;;;;;;;;5156555;27;20496;-62
2021/07/11 11:45:08;;;;;;;2.58;2.38;;;;;;;;;;5124395;27;20072;-63
2021/07/11 11:47:34;;;;;;;2.42;2.28;;;;;;;;;;5134030;27;20022;-62
2021/07/11 11:50:29;;;;;;;3.20;2.40;;;;;;;;;;5154578;27;20018;-62
2021/07/11 11:53:10;;;;;;;3.00;2.28;;;;;;;;;;5103914;27;20027;-62
2021/07/11 11:55:37;;;;;;;1.90;1.80;;;;;;;;;;5155096;27;20465;-59
2021/07/11 11:58:08;;;;;;;2.10;2.00;;;;;;;;;;5153114;27;20031;-62
2021/07/11 12:00:34;;;;;;;1.92;1.83;;;;;;;;;;5137259;27;20389;-62
2021/07/11 12:03:01;;;;;;;2.40;2.30;;;;;;;;;;5156266;27;20011;-62
2021/07/11 12:05:28;;;;;;;2.17;2.08;;;;;;;;;;5144996;27;20482;-62
2021/07/11 12:07:55;;;;;;;1.70;1.60;;;;;;;;;;5148561;27;20580;-63
2021/07/11 12:10:21;;;;;;;2.05;1.95;;;;;;;;;;5119112;27;20114;-62
2021/07/11 12:13:06;;;;;;;2.15;1.95;;;;;;;;;;5116984;27;20069;-62
2021/07/11 12:15:33;;;;;;;2.17;1.98;;;;;;;;;;5134447;27;20032;-62
2021/07/11 12:18:00;;;;;;;2.25;2.08;;;;;;;;;;5131335;27;20446;-62
2021/07/11 12:20:25;;;;;;;2.78;2.00;;;;;;;;;;5140784;27;20484;-63
2021/07/11 12:22:50;;;;;;;2.78;2.25;;;;;;;;;;5155813;27;20022;-63
2021/07/11 12:25:18;;;;;;;1.80;1.70;;;;;;;;;;5137004;27;20038;-63
2021/07/11 12:27:47;;;;;;;2.97;2.50;;;;;;;;;;5152857;27;20240;-62
2021/07/11 12:30:17;;;;;;;2.53;2.30;;;;;;;;;;5154862;27;20046;-62
2021/07/11 12:32:46;;;;;;;3.25;2.40;;;;;;;;;;5155609;27;20445;-62
2021/07/11 12:35:12;;;;;;;2.47;2.38;;;;;;;;;;5136625;27;20027;-62
2021/07/11 12:37:48;;;;;;;2.50;2.30;;;;;;;;;;5153187;27;20377;-62
2021/07/11 12:40:17;;;;;;;2.58;2.38;;;;;;;;;;5134214;27;20007;-62
2021/07/11 12:42:42;;;;;;;2.42;2.33;;;;;;;;;;5134810;27;20019;-62
2021/07/11 12:45:15;;;;;;;2.53;2.40;;;;;;;;;;5134732;27;20012;-62
2021/07/11 12:47:47;;;;;;;2.13;2.03;;;;;;;;;;5113546;27;20608;-63
2021/07/11 12:50:12;;;;;;;2.38;2.28;;;;;;;;;;5146138;27;20503;-62
2021/07/11 12:52:38;;;;;;;2.30;2.20;;;;;;;;;;5154352;27;20027;-60
2021/07/11 12:55:10;;;;;;;2.58;2.47;;;;;;;;;;5155017;27;20278;-63
2021/07/11 12:57:35;;;;;;;2.30;2.20;;;;;;;;;;5153221;27;20010;-66
2021/07/11 13:00:01;;;;;;;2.43;2.17;;;;;;;;;;5153923;27;20011;-63
2021/07/11 13:02:29;;;;;;;2.10;2.00;;;;;;;;;;5139610;27;20245;-62
2021/07/11 13:04:59;;;;;;;2.50;2.40;;;;;;;;;;5143875;27;20035;-62
2021/07/11 13:07:25;;;;;;;1.90;1.80;;;;;;;;;;5150059;27;20376;-62
2021/07/11 13:09:50;;;;;;;2.10;2.00;;;;;;;;;;5151941;27;20087;-62
2021/07/11 13:12:16;;;;;;;2.25;2.15;;;;;;;;;;5154148;27;20102;-62
2021/07/11 13:14:51;;;;;;;4.30;2.58;;;;;;;;;;5136225;27;20083;-62
2021/07/11 13:17:16;;;;;;;2.42;2.22;;;;;;;;;;5155099;27;20037;-62
2021/07/11 13:19:42;;;;;;;2.67;2.58;;;;;;;;;;5150842;27;20458;-62
2021/07/11 13:22:07;;;;;;;2.63;2.47;;;;;;;;;;5154518;27;20022;-62
2021/07/11 13:24:32;;;;;;;2.40;2.30;;;;;;;;;;5154419;27;20252;-64
2021/07/11 13:26:57;;;;;;;2.47;2.30;;;;;;;;;;5154427;27;20053;-64
2021/07/11 13:29:23;;;;;;;1.88;1.77;;;;;;;;;;5150775;27;20416;-63
2021/07/11 13:31:48;;;;;;;2.20;2.00;;;;;;;;;;5153880;27;20019;-62
2021/07/11 13:34:13;;;;;;;1.95;1.60;;;;;;;;;;5153880;27;20094;-62
2021/07/11 13:36:39;;;;;;;4.82;1.90;;;;;;;;;;5154320;27;20023;-62
2021/07/11 13:39:04;;;;;;;1.88;1.77;;;;;;;;;;5151071;27;20019;-61
2021/07/11 13:41:30;;;;;;;1.85;1.75;;;;;;;;;;5135505;27;20396;-62
2021/07/11 13:43:55;;;;;;;2.05;1.92;;;;;;;;;;5154278;27;20091;-62
2021/07/11 13:46:20;;;;;;;2.10;2.00;;;;;;;;;;5154251;27;20015;-62
2021/07/11 13:48:46;;;;;;;2.45;2.25;;;;;;;;;;5150862;27;20037;-62
2021/07/11 13:51:11;;;;;;;2.40;2.15;;;;;;;;;;5133573;27;20027;-62
2021/07/11 13:53:37;;;;;;;2.10;2.00;;;;;;;;;;5137275;27;20019;-62
2021/07/11 13:56:02;;;;;;;2.60;2.40;;;;;;;;;;5138482;27;20355;-62
2021/07/11 13:58:27;;;;;;;2.90;2.70;;;;;;;;;;5150913;27;20011;-64
2021/07/11 14:00:52;;;;;;;2.75;2.55;;;;;;;;;;5132956;27;20075;-62
2021/07/11 14:03:18;;;;;;;2.60;2.50;;;;;;;;;;5117210;27;20064;-60
2021/07/11 14:05:43;;;;;;;2.70;2.50;;;;;;;;;;5137470;27;20051;-62
2021/07/11 14:08:09;;;;;;;3.37;2.60;;;;;;;;;;5129636;27;20395;-60
2021/07/11 14:10:35;;;;;;;2.67;2.58;;;;;;;;;;5152832;27;20696;-59
2021/07/11 14:13:01;;;;;;;1.83;1.67;;;;;;;;;;5134943;27;20023;-60
2021/07/11 14:15:27;;;;;;;2.15;2.05;;;;;;;;;;5114553;27;20030;-59
2021/07/11 14:17:53;;;;;;;2.20;2.10;;;;;;;;;;5150592;27;20505;-60
2021/07/11 14:20:19;;;;;;;2.10;2.00;;;;;;;;;;5153297;27;20029;-60
2021/07/11 14:22:44;;;;;;;2.88;1.73;;;;;;;;;;5153342;27;20050;-60
2021/07/11 14:25:10;;;;;;;3.13;2.20;;;;;;;;;;5134914;27;20027;-60
2021/07/11 14:27:36;;;;;;;2.10;2.00;;;;;;;;;;5130835;27;20023;-60
2021/07/11 14:30:02;;;;;;;1.90;1.80;;;;;;;;;;5131731;28;20022;-60
2021/07/11 14:32:28;;;;;;;1.98;1.75;;;;;;;;;;5114353;28;20107;-59
2021/07/11 14:34:53;;;;;;;2.25;2.15;;;;;;;;;;5133262;27;20061;-61
2021/07/11 14:37:18;;;;;;;2.00;1.80;;;;;;;;;;5132906;28;20015;-61
2021/07/11 14:39:43;;;;;;;2.20;1.52;;;;;;;;;;5129458;28;20261;-61